Derby Line, Vermont
Current Conditions -  °F | °C
As of 10:35 AM on Thursday 30 Oct 2014 (Local Time) from KEFK Reporting Station
Overcast Overcast  
Wind Chill: 37°   Ceiling: 3400
Heat Index: 41°   Visibility: 10mi
Dew Point: 38°   Wind: 6mph
Humidity: 88%   Direction: 300°WNW
Pressure: 29.94"   Gusts: NA
Location:  45°N, 72.1°W
Report Text: KEFK 301435Z AUTO 30005KT 10SM SCT014 SCT027 OVC034 05/03 A2994 RMK AO2 T00500031
Loading
Personal Weather Stations






























Interactive Weather Map
Tropical Storm Tracking
New forecast layout! Learn more

10-Day Weather Forecast

Advertisements
Track Severe Weather on mobile